Los Angeles, California
Traffic Map
Current Weather Conditions
Los Angeles, California
Overcast
Overcast
14°
Feels Like: 14°
Wind Chill: 14° Ceiling: 1100
Heat Index: 14° Visibility: 10mi
Dew Point: 12° Wind: 5mph
Humidity: 87% Direction: ° ()
Pressure: 30.28in Gusts: 0mph
Raw Report DataKCQT 201805Z AUTO VRB04KT 10SM OVC011 14/12 A3028 RMK AO2 T01390117
Traffic Incident Summary
Active as of:
Severity:
Category:
InformationThere was an issue retrieving the traffic information for this location. Please try a different location or try again shortly.
Advertisements
Track Severe Weather on mobile